createdAt,value
2019-05-18T00:00:38.086Z,16.8
2019-05-18T00:02:42.273Z,16.8
2019-05-18T00:04:46.781Z,16.8
2019-05-18T00:05:48.889Z,16.8
2019-05-18T00:07:53.132Z,16.8
2019-05-18T00:09:57.626Z,16.6
2019-05-18T00:10:59.712Z,16.7
2019-05-18T00:12:01.790Z,16.6
2019-05-18T00:13:04.609Z,16.8
2019-05-18T00:15:09.560Z,16.8
2019-05-18T00:17:26.532Z,16.8
2019-05-18T00:18:29.252Z,16.7
2019-05-18T00:19:31.728Z,16.7
2019-05-18T00:20:33.842Z,16.8
2019-05-18T00:22:38.378Z,16.8
2019-05-18T00:24:42.880Z,16.8
2019-05-18T00:25:45.309Z,16.8
2019-05-18T00:27:49.909Z,16.7
2019-05-18T00:29:54.512Z,16.8
2019-05-18T00:31:59.141Z,16.8
2019-05-18T00:33:01.260Z,16.8
2019-05-18T00:35:05.914Z,16.7
2019-05-18T00:37:10.096Z,16.8
2019-05-18T00:38:12.199Z,16.8
2019-05-18T00:39:14.891Z,16.7
2019-05-18T00:40:17.322Z,16.7
2019-05-18T00:42:22.189Z,16.6
2019-05-18T00:44:27.373Z,16.7
2019-05-18T00:45:29.479Z,16.8
2019-05-18T00:47:43.266Z,16.6
2019-05-18T00:49:48.010Z,16.6
2019-05-18T00:51:52.958Z,16.7
2019-05-18T00:52:55.047Z,16.6
2019-05-18T00:53:57.138Z,16.5
2019-05-18T00:54:59.233Z,16.4
2019-05-18T00:57:04.380Z,16.5
2019-05-18T00:59:09.715Z,16.5
2019-05-18T01:00:11.808Z,16.4
2019-05-18T01:02:15.995Z,16.5
2019-05-18T01:04:20.450Z,16.5
2019-05-18T01:05:22.557Z,16.4
2019-05-18T01:06:24.634Z,16.4
2019-05-18T01:07:27.031Z,16.4
2019-05-18T01:09:32.429Z,16.5
2019-05-18T01:11:36.851Z,16.3
2019-05-18T01:12:38.923Z,16.4
2019-05-18T01:14:43.151Z,16.3
2019-05-18T01:16:47.390Z,16.5
2019-05-18T01:18:03.035Z,16.4
2019-05-18T01:19:05.134Z,16.4
2019-05-18T01:20:07.220Z,16.4
2019-05-18T01:22:11.408Z,16.5
2019-05-18T01:24:15.638Z,16.4
2019-05-18T01:26:19.890Z,16.2
2019-05-18T01:27:21.967Z,16.2
2019-05-18T01:29:26.184Z,16.3
2019-05-18T01:31:30.454Z,16.4
2019-05-18T01:32:33.217Z,16.3
2019-05-18T01:33:35.308Z,16.2
2019-05-18T01:34:37.393Z,16.2
2019-05-18T01:36:42.028Z,16.1
2019-05-18T01:38:46.258Z,16.1
2019-05-18T01:39:48.735Z,16.1
2019-05-18T01:41:53.557Z,16.1
2019-05-18T01:43:58.815Z,16.1
2019-05-18T01:45:18.289Z,16.1
2019-05-18T01:46:20.670Z,16
2019-05-18T01:47:22.752Z,16
2019-05-18T01:48:24.843Z,16.1
2019-05-18T01:49:26.939Z,15.9
2019-05-18T01:51:31.405Z,15.8
2019-05-18T01:53:35.635Z,15.9
2019-05-18T01:54:37.736Z,15.9
2019-05-18T01:56:41.938Z,15.8
2019-05-18T01:58:46.583Z,15.8
2019-05-18T01:59:48.670Z,15.8
2019-05-18T02:00:50.747Z,15.9
2019-05-18T02:01:52.833Z,15.9
2019-05-18T02:03:57.036Z,15.8
2019-05-18T02:06:01.546Z,15.8
2019-05-18T02:07:04.799Z,15.9
2019-05-18T02:09:09.913Z,15.9
2019-05-18T02:11:15.215Z,15.9
2019-05-18T02:13:19.478Z,15.8
2019-05-18T02:14:21.963Z,15.9
2019-05-18T02:16:26.736Z,15.9
2019-05-18T02:18:31.273Z,15.6
2019-05-18T02:19:33.765Z,15.7
2019-05-18T02:20:36.164Z,15.7
2019-05-18T02:21:38.278Z,15.5
2019-05-18T02:23:42.551Z,15.7
2019-05-18T02:25:47.337Z,15.7
2019-05-18T02:26:49.430Z,15.7
2019-05-18T02:28:54.314Z,15.6
2019-05-18T02:30:58.955Z,15.5
2019-05-18T02:33:04.491Z,15.6
2019-05-18T02:34:06.921Z,15.7
2019-05-18T02:36:11.175Z,15.7
2019-05-18T02:38:16.531Z,15.6
2019-05-18T02:39:18.652Z,15.6
2019-05-18T02:40:21.096Z,15.7
2019-05-18T02:41:23.827Z,15.7
2019-05-18T02:43:34.006Z,15.6
2019-05-18T02:45:39.219Z,15.4
2019-05-18T02:46:41.289Z,15.5
2019-05-18T02:47:44.017Z,15.6
2019-05-18T02:48:52.051Z,15.6
2019-05-18T02:50:56.298Z,15.5
2019-05-18T02:53:02.622Z,15.6
2019-05-18T02:54:05.007Z,15.6
2019-05-18T02:55:08.128Z,15.7
2019-05-18T02:56:10.494Z,15.6
2019-05-18T02:58:15.582Z,15.7
2019-05-18T03:00:19.725Z,15.6
2019-05-18T03:01:22.089Z,15.4
2019-05-18T03:03:26.634Z,15.5
2019-05-18T03:05:32.498Z,15.4
2019-05-18T03:07:37.981Z,15.6
2019-05-18T03:08:40.350Z,15.5
2019-05-18T03:10:45.002Z,15.5
2019-05-18T03:12:50.291Z,15.6
2019-05-18T03:13:52.669Z,15.6
2019-05-18T03:14:54.775Z,15.5
2019-05-18T03:15:56.856Z,15.5
2019-05-18T03:18:01.380Z,15.4
2019-05-18T03:19:10.533Z,15.5
2019-05-18T03:20:13.034Z,15.5
2019-05-18T03:21:15.513Z,15.6
2019-05-18T03:22:17.630Z,15.5
2019-05-18T03:23:19.997Z,15.6
2019-05-18T03:25:24.251Z,15.5
2019-05-18T03:27:29.780Z,15.6
2019-05-18T03:28:32.772Z,15.6
2019-05-18T03:30:37.709Z,15.4
2019-05-18T03:32:44.431Z,15.4
2019-05-18T03:34:49.091Z,15.6
2019-05-18T03:35:51.787Z,15.5
2019-05-18T03:37:57.106Z,15.4
2019-05-18T03:40:02.731Z,15.4
2019-05-18T03:41:04.836Z,15.4
2019-05-18T03:42:07.273Z,15.4
2019-05-18T03:43:09.361Z,15.3
2019-05-18T03:45:13.993Z,15.3
2019-05-18T03:47:19.469Z,15.3
2019-05-18T03:48:21.964Z,15.2
2019-05-18T03:50:31.294Z,15.2
2019-05-18T03:52:35.559Z,15.3
2019-05-18T03:54:40.334Z,15.3
2019-05-18T03:55:42.450Z,15.2
2019-05-18T03:57:47.257Z,15.3
2019-05-18T03:59:51.520Z,15.3
2019-05-18T04:00:53.612Z,15.4
2019-05-18T04:01:56.228Z,15.3
2019-05-18T04:02:58.704Z,15.3
2019-05-18T04:05:04.280Z,15.2
2019-05-18T04:07:08.521Z,15.2
2019-05-18T04:08:11.558Z,15.3
2019-05-18T04:09:14.058Z,15.2
2019-05-18T04:10:16.142Z,15.2
2019-05-18T04:12:20.918Z,15.2
2019-05-18T04:14:25.894Z,15.2
2019-05-18T04:15:28.772Z,15.3
2019-05-18T04:17:33.640Z,15.1
2019-05-18T04:19:48.530Z,15.1
2019-05-18T04:21:53.434Z,15.1
2019-05-18T04:22:55.897Z,15.1
2019-05-18T04:25:00.969Z,15.2
2019-05-18T04:27:05.778Z,15.2
2019-05-18T04:29:10.304Z,15.2
2019-05-18T04:30:13.429Z,15.3
2019-05-18T04:32:18.596Z,15.2
2019-05-18T04:34:23.347Z,15.3
2019-05-18T04:35:26.016Z,15.4
2019-05-18T04:36:28.594Z,15.4
2019-05-18T04:37:30.946Z,15.4
2019-05-18T04:39:35.445Z,15.4
2019-05-18T04:41:40.053Z,15.3
2019-05-18T04:42:42.720Z,15.4
2019-05-18T04:44:47.950Z,15.4
2019-05-18T04:46:52.455Z,15.4
2019-05-18T04:48:56.901Z,15.3
2019-05-18T04:50:07.759Z,15.3
2019-05-18T04:52:12.583Z,15.3
2019-05-18T04:54:17.203Z,15.4
2019-05-18T04:56:21.991Z,15.4
2019-05-18T04:57:24.096Z,15.5
2019-05-18T04:59:29.021Z,15.5
2019-05-18T05:01:34.483Z,15.5
2019-05-18T05:02:37.464Z,15.6
2019-05-18T05:03:39.557Z,15.5
2019-05-18T05:04:41.653Z,15.6
2019-05-18T05:06:46.522Z,15.5
2019-05-18T05:08:51.032Z,15.5
2019-05-18T05:09:53.146Z,15.6
2019-05-18T05:11:57.627Z,15.7
2019-05-18T05:14:03.102Z,15.8
2019-05-18T05:16:07.576Z,15.7
2019-05-18T05:17:10.283Z,15.7
2019-05-18T05:19:14.787Z,15.7
2019-05-18T05:21:23.656Z,15.7
2019-05-18T05:22:25.744Z,15.7
2019-05-18T05:23:27.770Z,15.8
2019-05-18T05:24:30.182Z,15.9
2019-05-18T05:26:34.391Z,15.7
2019-05-18T05:28:38.900Z,15.9
2019-05-18T05:29:42.005Z,15.9
2019-05-18T05:31:46.655Z,16.1
2019-05-18T05:33:50.787Z,16
2019-05-18T05:35:55.410Z,16.1
2019-05-18T05:36:58.065Z,16.2
2019-05-18T05:39:02.554Z,16.3
2019-05-18T05:41:07.810Z,16.3
2019-05-18T05:42:10.260Z,16.4
2019-05-18T05:43:12.334Z,16.4
2019-05-18T05:44:14.710Z,16.4
2019-05-18T05:46:18.949Z,16.6
2019-05-18T05:48:24.347Z,16.7
2019-05-18T05:49:27.112Z,16.6
2019-05-18T05:50:37.951Z,16.7
2019-05-18T05:51:40.034Z,16.8
2019-05-18T05:53:45.245Z,16.8
2019-05-18T05:55:49.470Z,16.9
2019-05-18T05:56:51.567Z,16.8
2019-05-18T05:58:56.174Z,16.8
2019-05-18T06:01:00.822Z,16.9
2019-05-18T06:03:06.278Z,17
2019-05-18T06:04:08.356Z,16.8
2019-05-18T06:06:13.261Z,17
2019-05-18T06:08:17.773Z,17.2
2019-05-18T06:09:19.873Z,17.4
2019-05-18T06:10:21.963Z,17.3
2019-05-18T06:11:24.626Z,17.3
2019-05-18T06:13:28.863Z,17.4
2019-05-18T06:15:33.083Z,17.2
2019-05-18T06:16:35.209Z,17.1
2019-05-18T06:18:39.451Z,17.2
2019-05-18T06:20:53.111Z,17.5
2019-05-18T06:22:57.958Z,17.7
2019-05-18T06:24:00.057Z,17.6
2019-05-18T06:26:09.679Z,17.8
2019-05-18T06:28:14.233Z,17.6
2019-05-18T06:30:18.819Z,17.8
2019-05-18T06:31:24.912Z,17.8
2019-05-18T06:33:29.832Z,18
2019-05-18T06:35:34.013Z,17.9
2019-05-18T06:36:36.104Z,18
2019-05-18T06:37:38.573Z,17.8
2019-05-18T06:38:40.765Z,17.9
2019-05-18T06:40:45.346Z,17.8
2019-05-18T06:42:49.568Z,17.9
2019-05-18T06:43:51.935Z,18.1
2019-05-18T06:45:56.957Z,18.3
2019-05-18T06:48:01.453Z,18.5
2019-05-18T06:50:05.700Z,18.5
2019-05-18T06:51:09.461Z,18.4
2019-05-18T06:53:14.313Z,18.5
2019-05-18T06:55:18.928Z,18.7
2019-05-18T06:56:21.021Z,18.8
2019-05-18T06:58:25.269Z,18.9
2019-05-18T07:00:30.160Z,18.9
2019-05-18T07:02:34.393Z,18.8
2019-05-18T07:03:36.502Z,18.8
2019-05-18T07:05:41.339Z,18.9
2019-05-18T07:07:46.204Z,18.9
2019-05-18T07:08:48.615Z,18.8
2019-05-18T07:10:53.079Z,18.9
2019-05-18T07:13:00.281Z,19.2
2019-05-18T07:15:05.095Z,19.1
2019-05-18T07:16:07.200Z,19.3
2019-05-18T07:17:09.661Z,19.1
2019-05-18T07:18:11.848Z,19.1
2019-05-18T07:20:17.004Z,19.3
2019-05-18T07:22:26.363Z,19.8
2019-05-18T07:23:28.586Z,19.6
2019-05-18T07:25:33.349Z,19.6
2019-05-18T07:27:38.147Z,19.7
2019-05-18T07:28:41.435Z,19.8
2019-05-18T07:29:43.937Z,20
2019-05-18T07:30:46.174Z,20
2019-05-18T07:32:50.666Z,19.9
2019-05-18T07:34:55.450Z,19.8
2019-05-18T07:35:57.695Z,19.9
2019-05-18T07:38:02.768Z,20
2019-05-18T07:40:07.262Z,20
2019-05-18T07:41:09.461Z,20
2019-05-18T07:42:11.657Z,20
2019-05-18T07:43:13.848Z,20
2019-05-18T07:45:18.617Z,20.2
2019-05-18T07:47:23.414Z,20.1
2019-05-18T07:48:25.589Z,20
2019-05-18T07:50:30.340Z,20.5
2019-05-18T07:52:41.300Z,20.8
2019-05-18T07:54:45.789Z,20.8
2019-05-18T07:55:47.981Z,20.9
2019-05-18T07:57:53.963Z,21
2019-05-18T07:59:58.739Z,21
2019-05-18T08:01:00.863Z,21.1
2019-05-18T08:02:03.075Z,21.2
2019-05-18T08:03:06.296Z,21.2
2019-05-18T08:05:11.079Z,21.2
2019-05-18T08:07:15.625Z,21.2
2019-05-18T08:08:17.827Z,21.1
2019-05-18T08:09:20.021Z,21.1
2019-05-18T08:10:22.193Z,21.2
2019-05-18T08:12:27.007Z,21.3
2019-05-18T08:14:31.453Z,21.5
2019-05-18T08:15:34.216Z,21.5
2019-05-18T08:17:39.064Z,21.4
2019-05-18T08:19:43.505Z,21.9
2019-05-18T08:20:46.085Z,22
2019-05-18T08:21:54.776Z,22.1
2019-05-18T08:22:56.968Z,22.1
2019-05-18T08:25:01.459Z,22.4
2019-05-18T08:27:06.637Z,22.6
2019-05-18T08:28:08.820Z,22.6
2019-05-18T08:29:11.688Z,22.6
2019-05-18T08:30:13.825Z,22.6
2019-05-18T08:32:18.322Z,23
2019-05-18T08:34:23.387Z,23.2
2019-05-18T08:35:29.083Z,23.2
2019-05-18T08:37:33.591Z,23
2019-05-18T08:39:38.397Z,23.2
2019-05-18T08:41:42.851Z,23.4
2019-05-18T08:42:45.054Z,23.2
2019-05-18T08:44:49.532Z,23.6
2019-05-18T08:46:54.719Z,23.5
2019-05-18T08:47:57.181Z,23.5
2019-05-18T08:48:59.321Z,23.5
2019-05-18T08:50:01.805Z,23.8
2019-05-18T08:52:10.096Z,24.1
2019-05-18T08:54:15.312Z,23.8
2019-05-18T08:55:17.838Z,24.6
2019-05-18T08:56:21.445Z,24.6
2019-05-18T08:57:23.690Z,24.2
2019-05-18T08:59:29.117Z,24.6
2019-05-18T09:01:34.953Z,24.7
2019-05-18T09:02:37.181Z,24.7
2019-05-18T09:04:42.390Z,23.9
2019-05-18T09:06:47.149Z,23.6
2019-05-18T09:07:49.570Z,23.3
2019-05-18T09:08:51.796Z,23.6
2019-05-18T09:09:54.630Z,24.2
2019-05-18T09:11:59.811Z,24.3
2019-05-18T09:14:05.605Z,23.7
2019-05-18T09:15:08.831Z,24.3
2019-05-18T09:16:11.328Z,24.3
2019-05-18T09:17:13.526Z,24.2
2019-05-18T09:19:19.188Z,24.1
2019-05-18T09:21:24.290Z,24
2019-05-18T09:22:26.852Z,24.3
2019-05-18T09:24:31.401Z,24.4
2019-05-18T09:26:35.872Z,24.3
2019-05-18T09:27:38.116Z,24.1
2019-05-18T09:28:40.933Z,24.2
2019-05-18T09:29:43.434Z,24.4
2019-05-18T09:31:47.879Z,24.5
2019-05-18T09:33:52.593Z,24.4
2019-05-18T09:34:55.079Z,24.4
2019-05-18T09:36:59.873Z,24.5
2019-05-18T09:39:04.403Z,24.4
2019-05-18T09:41:08.701Z,25.1
2019-05-18T09:42:10.909Z,25
2019-05-18T09:44:15.357Z,25
2019-05-18T09:46:19.878Z,25.1
2019-05-18T09:47:22.372Z,25.3
2019-05-18T09:48:24.605Z,25.2
2019-05-18T09:49:26.820Z,25.1
2019-05-18T09:51:31.563Z,25.1
2019-05-18T09:52:47.349Z,25
2019-05-18T09:53:53.302Z,25.3
2019-05-18T09:55:57.652Z,25.8
2019-05-18T09:56:59.779Z,25.7
2019-05-18T09:59:04.804Z,25.6
2019-05-18T10:01:09.065Z,25.6
2019-05-18T10:02:11.249Z,25.7
2019-05-18T10:03:13.313Z,25.6
2019-05-18T10:04:15.420Z,26
2019-05-18T10:06:20.609Z,25.7
2019-05-18T10:08:25.095Z,26.3
2019-05-18T10:09:40.256Z,25.9
2019-05-18T10:10:42.345Z,25.8
2019-05-18T10:11:44.435Z,25.4
2019-05-18T10:13:49.015Z,25.6
2019-05-18T10:15:53.957Z,26.3
2019-05-18T10:16:56.458Z,26.2
2019-05-18T10:19:01.093Z,25.7
2019-05-18T10:21:06.065Z,25.1
2019-05-18T10:23:15.623Z,25.5
2019-05-18T10:24:18.495Z,25.7
2019-05-18T10:26:22.741Z,26.2
2019-05-18T10:28:27.265Z,26.2
2019-05-18T10:29:29.709Z,26.4
2019-05-18T10:30:32.221Z,26.6
2019-05-18T10:31:34.368Z,26.2
2019-05-18T10:33:38.663Z,26.3
2019-05-18T10:35:43.360Z,26.7
2019-05-18T10:36:45.748Z,27
2019-05-18T10:38:50.015Z,26.5
2019-05-18T10:40:54.290Z,26.7
2019-05-18T10:42:58.557Z,26.7
2019-05-18T10:44:00.920Z,26.5
2019-05-18T10:46:05.917Z,25.9
2019-05-18T10:48:11.273Z,26
2019-05-18T10:49:14.011Z,25.5
2019-05-18T10:50:16.146Z,25.7
2019-05-18T10:51:18.256Z,25.9
2019-05-18T10:53:30.623Z,26
2019-05-18T10:54:34.923Z,26.6
2019-05-18T10:55:37.290Z,26.5
2019-05-18T10:56:40.094Z,26.2
2019-05-18T10:57:42.558Z,25.8
2019-05-18T10:58:44.666Z,25.9
2019-05-18T11:00:48.955Z,26
2019-05-18T11:02:53.603Z,26.2
2019-05-18T11:03:55.704Z,26.3
2019-05-18T11:06:00.399Z,25.8
2019-05-18T11:08:04.731Z,26.4
2019-05-18T11:10:09.749Z,26.4
2019-05-18T11:11:12.529Z,26.8
2019-05-18T11:13:18.806Z,26.8
2019-05-18T11:15:24.567Z,26.6
2019-05-18T11:16:27.053Z,26.9
2019-05-18T11:18:32.745Z,26.3
2019-05-18T11:20:37.983Z,25.7
2019-05-18T11:22:42.663Z,25.6
2019-05-18T11:23:49.076Z,25.7
2019-05-18T11:25:53.672Z,25.8
2019-05-18T11:27:57.918Z,26.2
2019-05-18T11:30:04.813Z,26.4
2019-05-18T11:31:07.257Z,26.8
2019-05-18T11:33:12.270Z,26.9
2019-05-18T11:35:16.974Z,26.7
2019-05-18T11:36:19.111Z,26.7
2019-05-18T11:37:22.748Z,26.5
2019-05-18T11:38:24.871Z,26.2
2019-05-18T11:40:29.612Z,26.1
2019-05-18T11:42:34.881Z,26
2019-05-18T11:43:37.009Z,26.1
2019-05-18T11:45:42.127Z,27.1
2019-05-18T11:47:46.929Z,27.3
2019-05-18T11:49:53.350Z,26.6
2019-05-18T11:50:55.838Z,26.4
2019-05-18T11:53:01.117Z,26.3
2019-05-18T11:55:07.573Z,26.5
2019-05-18T11:57:13.192Z,26.5
2019-05-18T11:58:15.380Z,26.2
2019-05-18T12:00:20.312Z,26.1
2019-05-18T12:02:24.560Z,27
2019-05-18T12:03:27.257Z,27.1
2019-05-18T12:04:29.408Z,27.3
2019-05-18T12:05:31.516Z,27.1
2019-05-18T12:07:36.790Z,27.4
2019-05-18T12:09:41.574Z,27
2019-05-18T12:10:43.702Z,27.1
2019-05-18T12:12:48.962Z,28
2019-05-18T12:14:53.228Z,27
2019-05-18T12:15:55.768Z,27.3
2019-05-18T12:16:57.850Z,27.6
2019-05-18T12:17:59.990Z,27.1
2019-05-18T12:20:04.358Z,27.4
2019-05-18T12:22:08.660Z,26.9
2019-05-18T12:23:12.142Z,26.6
2019-05-18T12:25:19.547Z,26.2
2019-05-18T12:27:23.818Z,26.2
2019-05-18T12:29:28.163Z,26.3
2019-05-18T12:30:30.375Z,26.5
2019-05-18T12:32:34.908Z,26.5
2019-05-18T12:34:39.412Z,26.7
2019-05-18T12:35:41.548Z,26.5
2019-05-18T12:36:43.754Z,26.3
2019-05-18T12:37:46.016Z,26.2
2019-05-18T12:39:51.372Z,26.7
2019-05-18T12:41:55.891Z,27.2
2019-05-18T12:42:58.113Z,26.7
2019-05-18T12:45:02.595Z,26.4
2019-05-18T12:47:07.139Z,26
2019-05-18T12:49:11.978Z,26.1
2019-05-18T12:50:14.521Z,26.5
2019-05-18T12:52:19.813Z,26.8
2019-05-18T12:54:48.765Z,26.9
2019-05-18T12:55:50.978Z,27
2019-05-18T12:56:53.901Z,27.1
2019-05-18T12:57:56.153Z,26.7
2019-05-18T12:58:59.130Z,26.4
2019-05-18T13:00:01.402Z,26.3
2019-05-18T13:02:05.928Z,26
2019-05-18T13:04:11.050Z,26.7
2019-05-18T13:05:13.267Z,26.4
2019-05-18T13:07:18.991Z,26.9
2019-05-18T13:09:25.331Z,27.3
2019-05-18T13:11:29.798Z,27.7
2019-05-18T13:12:32.024Z,27.5
2019-05-18T13:14:36.753Z,27.9
2019-05-18T13:16:41.524Z,28.6
2019-05-18T13:17:43.756Z,28.7
2019-05-18T13:18:46.334Z,28.4
2019-05-18T13:19:48.855Z,28.2
2019-05-18T13:21:53.333Z,28.6
2019-05-18T13:23:58.474Z,27.5
2019-05-18T13:25:01.088Z,27.1
2019-05-18T13:27:05.892Z,26.8
2019-05-18T13:29:11.290Z,26.6
2019-05-18T13:31:16.236Z,27.2
2019-05-18T13:32:18.463Z,26.9
2019-05-18T13:34:22.945Z,26.8
2019-05-18T13:36:27.992Z,26.6
2019-05-18T13:37:30.210Z,26.9
2019-05-18T13:38:32.349Z,26.8
2019-05-18T13:39:35.134Z,26.8
2019-05-18T13:41:39.887Z,26.8
2019-05-18T13:43:44.845Z,27
2019-05-18T13:44:47.373Z,26.8
2019-05-18T13:46:53.242Z,27.2
2019-05-18T13:48:57.711Z,27.8
2019-05-18T13:51:02.746Z,28.1
2019-05-18T13:52:05.012Z,28
2019-05-18T13:54:10.054Z,28.1
2019-05-18T13:56:14.531Z,27.6
2019-05-18T13:57:16.740Z,27.7
2019-05-18T13:58:19.638Z,27.8
2019-05-18T13:59:22.235Z,27.6
2019-05-18T14:01:26.717Z,28
2019-05-18T14:03:31.207Z,28.5
2019-05-18T14:04:33.457Z,29
2019-05-18T14:06:38.594Z,29
2019-05-18T14:08:44.222Z,29.1
2019-05-18T14:09:46.435Z,29.3
2019-05-18T14:10:49.388Z,29
2019-05-18T14:11:51.586Z,28.3
2019-05-18T14:13:56.978Z,28
2019-05-18T14:16:01.899Z,28
2019-05-18T14:17:04.148Z,27.6
2019-05-18T14:19:09.622Z,27.1
2019-05-18T14:21:14.725Z,27.1
2019-05-18T14:23:19.722Z,26.7
2019-05-18T14:24:21.926Z,26.6
2019-05-18T14:26:26.420Z,26.5
2019-05-18T14:28:30.874Z,26.5
2019-05-18T14:29:33.423Z,26.5
2019-05-18T14:30:35.917Z,26.5
2019-05-18T14:31:38.060Z,26.4
2019-05-18T14:33:42.816Z,26.1
2019-05-18T14:35:47.664Z,26
2019-05-18T14:36:50.163Z,26.1
2019-05-18T14:38:58.114Z,26.3
2019-05-18T14:41:02.583Z,26
2019-05-18T14:43:07.770Z,26.3
2019-05-18T14:44:09.973Z,26.2
2019-05-18T14:46:15.132Z,26.6
2019-05-18T14:48:19.610Z,27
2019-05-18T14:50:24.024Z,27.4
2019-05-18T14:51:26.942Z,27.6
2019-05-18T14:53:31.780Z,27.5
2019-05-18T14:55:36.267Z,27.4
2019-05-18T14:56:38.804Z,27.5
2019-05-18T14:57:40.915Z,27.6
2019-05-18T14:58:43.366Z,27.6
2019-05-18T15:00:48.352Z,28
2019-05-18T15:02:53.034Z,28.1
2019-05-18T15:03:55.134Z,28.1
2019-05-18T15:06:00.282Z,28.4
2019-05-18T15:08:04.585Z,28.4
2019-05-18T15:10:09.645Z,27.6
2019-05-18T15:11:12.432Z,28
2019-05-18T15:13:17.115Z,28
2019-05-18T15:15:21.391Z,27.2
2019-05-18T15:16:23.483Z,27
2019-05-18T15:17:26.015Z,26.8
2019-05-18T15:18:28.134Z,26.9
2019-05-18T15:20:33.789Z,27.3
2019-05-18T15:22:38.330Z,27.4
2019-05-18T15:23:40.420Z,27.2
2019-05-18T15:25:52.374Z,27.4
2019-05-18T15:26:54.842Z,27.5
2019-05-18T15:27:56.970Z,27.9
2019-05-18T15:30:02.297Z,28
2019-05-18T15:31:04.955Z,28.2
2019-05-18T15:33:09.820Z,28.4
2019-05-18T15:35:14.377Z,28.9
2019-05-18T15:36:16.534Z,29
2019-05-18T15:37:18.932Z,28.6
2019-05-18T15:38:21.044Z,28.2
2019-05-18T15:40:25.995Z,26.9
2019-05-18T15:42:31.039Z,27.1
2019-05-18T15:43:33.446Z,26.7
2019-05-18T15:45:38.056Z,26.4
2019-05-18T15:47:42.722Z,26.3
2019-05-18T15:49:49.332Z,26.2
2019-05-18T15:50:51.491Z,26.3
2019-05-18T15:52:56.086Z,26.1
2019-05-18T15:55:00.352Z,25.8
2019-05-18T15:57:09.588Z,25.3
2019-05-18T15:58:12.395Z,25.4
2019-05-18T16:00:17.418Z,24.9
2019-05-18T16:02:22.767Z,24.9
2019-05-18T16:03:24.884Z,24.9
2019-05-18T16:04:27.279Z,24.8
2019-05-18T16:05:30.815Z,24.8
2019-05-18T16:06:33.782Z,24.9
2019-05-18T16:07:37.395Z,24.8
2019-05-18T16:09:42.286Z,24.9
2019-05-18T16:10:44.503Z,24.9
2019-05-18T16:12:48.986Z,25.2
2019-05-18T16:14:54.625Z,25.3
2019-05-18T16:15:57.197Z,25.2
2019-05-18T16:17:00.104Z,25.5
2019-05-18T16:18:02.249Z,25.4
2019-05-18T16:20:06.745Z,25.8
2019-05-18T16:22:11.250Z,25.7
2019-05-18T16:23:13.515Z,25.6
2019-05-18T16:25:18.973Z,25.7
2019-05-18T16:27:26.575Z,26
2019-05-18T16:29:31.433Z,26
2019-05-18T16:30:33.602Z,25.8
2019-05-18T16:32:38.418Z,26.2
2019-05-18T16:34:42.916Z,26.2
2019-05-18T16:35:45.410Z,26
2019-05-18T16:36:48.382Z,26
2019-05-18T16:37:50.658Z,25.8
2019-05-18T16:39:55.659Z,25.8
2019-05-18T16:42:00.232Z,25.6
2019-05-18T16:43:02.968Z,25.9
2019-05-18T16:45:08.193Z,25.8
2019-05-18T16:47:13.313Z,25.6
2019-05-18T16:49:18.103Z,25.7
2019-05-18T16:50:20.777Z,25.9
2019-05-18T16:52:25.973Z,26.1
2019-05-18T16:54:30.750Z,25.7
2019-05-18T16:55:34.531Z,25.8
2019-05-18T16:56:37.027Z,25.6
2019-05-18T16:57:39.271Z,25.5
2019-05-18T16:59:44.097Z,25.5
2019-05-18T17:01:48.960Z,25.6
2019-05-18T17:02:51.600Z,25.5
2019-05-18T17:03:54.105Z,25.5
2019-05-18T17:04:56.377Z,25.5
2019-05-18T17:07:01.076Z,25.3
2019-05-18T17:09:07.303Z,25.2
2019-05-18T17:10:09.858Z,25.2
2019-05-18T17:12:15.203Z,24.8
2019-05-18T17:14:19.970Z,24.7
2019-05-18T17:16:25.422Z,24.5
2019-05-18T17:17:27.884Z,24.5
2019-05-18T17:19:33.059Z,24.4
2019-05-18T17:21:37.576Z,24.3
2019-05-18T17:22:39.726Z,24.3
2019-05-18T17:23:41.998Z,24
2019-05-18T17:24:44.565Z,24.1
2019-05-18T17:26:54.561Z,24.1
2019-05-18T17:30:03.628Z,23.9
2019-05-18T17:31:05.817Z,24
2019-05-18T17:32:08.413Z,23.8
2019-05-18T17:34:13.294Z,23.9
2019-05-18T17:36:21.141Z,23.8
2019-05-18T17:37:24.037Z,23.7
2019-05-18T17:39:29.180Z,23.5
2019-05-18T17:41:33.641Z,23.4
2019-05-18T17:42:35.865Z,23.5
2019-05-18T17:43:38.050Z,23.5
2019-05-18T17:44:40.282Z,23.5
2019-05-18T17:46:45.104Z,23.2
2019-05-18T17:48:49.899Z,23.3
2019-05-18T17:49:52.310Z,23.3
2019-05-18T17:51:56.763Z,23.4
2019-05-18T17:54:01.521Z,23.4
2019-05-18T17:56:06.928Z,23.4
2019-05-18T17:57:10.667Z,23.3
2019-05-18T17:59:15.172Z,23.4
2019-05-18T18:01:20.227Z,23.3
2019-05-18T18:02:22.468Z,23.3
2019-05-18T18:03:24.611Z,23.4
2019-05-18T18:04:26.697Z,23.3
2019-05-18T18:06:30.982Z,23.4
2019-05-18T18:08:35.270Z,23.1
2019-05-18T18:09:38.339Z,23.3
2019-05-18T18:11:42.994Z,23.2
2019-05-18T18:13:47.584Z,23.1
2019-05-18T18:15:51.940Z,22.9
2019-05-18T18:16:54.034Z,22.7
2019-05-18T18:18:58.297Z,22.8
2019-05-18T18:21:02.885Z,23
2019-05-18T18:22:04.956Z,23
2019-05-18T18:23:07.365Z,23.1
2019-05-18T18:24:09.447Z,23.1
2019-05-18T18:26:13.677Z,23.1
2019-05-18T18:27:30.474Z,23.2
2019-05-18T18:28:32.893Z,23.1
2019-05-18T18:29:35.337Z,22.9
2019-05-18T18:30:37.449Z,22.3
2019-05-18T18:31:39.910Z,22.3
2019-05-18T18:33:44.612Z,22.7
2019-05-18T18:35:48.872Z,22.8
2019-05-18T18:36:50.961Z,22.9
2019-05-18T18:38:55.518Z,22.7
2019-05-18T18:41:00.587Z,22.7
2019-05-18T18:43:05.277Z,22.5
2019-05-18T18:44:07.371Z,22.4
2019-05-18T18:46:12.694Z,22.5
2019-05-18T18:48:17.238Z,22.4
2019-05-18T18:49:19.327Z,22.5
2019-05-18T18:50:21.731Z,22.4
2019-05-18T18:51:24.876Z,22.3
2019-05-18T18:53:29.933Z,22.3
2019-05-18T18:55:34.731Z,22.1
2019-05-18T18:56:36.846Z,22.1
2019-05-18T18:58:45.637Z,22.1
2019-05-18T19:00:49.922Z,21.9
2019-05-18T19:02:54.499Z,22
2019-05-18T19:03:56.628Z,22.1
2019-05-18T19:06:01.198Z,22
2019-05-18T19:08:05.740Z,21.9
2019-05-18T19:09:07.850Z,21.9
2019-05-18T19:10:09.887Z,22
2019-05-18T19:11:12.356Z,22
2019-05-18T19:13:16.599Z,21.9
2019-05-18T19:15:21.220Z,21.9
2019-05-18T19:16:23.329Z,21.9
2019-05-18T19:18:27.873Z,21.3
2019-05-18T19:20:32.095Z,21.5
2019-05-18T19:22:36.276Z,21.6
2019-05-18T19:23:39.194Z,21.6
2019-05-18T19:25:44.370Z,21.5
2019-05-18T19:27:56.661Z,21.5
2019-05-18T19:30:00.910Z,21.5
2019-05-18T19:31:03.025Z,21.3
2019-05-18T19:33:07.849Z,21.3
2019-05-18T19:35:12.937Z,21.2
2019-05-18T19:36:15.088Z,21.3
2019-05-18T19:37:17.902Z,21.3
2019-05-18T19:38:20.287Z,21.3
2019-05-18T19:40:24.746Z,21.2
2019-05-18T19:42:29.108Z,21.2
2019-05-18T19:43:31.197Z,21
2019-05-18T19:45:35.784Z,21.1
2019-05-18T19:47:40.383Z,21.2
2019-05-18T19:49:45.337Z,21
2019-05-18T19:50:47.725Z,20.9
2019-05-18T19:52:53.015Z,20.6
2019-05-18T19:54:57.550Z,20.7
2019-05-18T19:55:59.619Z,20.8
2019-05-18T19:57:03.179Z,20.6
2019-05-18T19:58:10.349Z,20.8
2019-05-18T20:00:15.183Z,20.8
2019-05-18T20:02:20.567Z,20.6
2019-05-18T20:03:22.934Z,20.7
2019-05-18T20:05:27.485Z,20.7
2019-05-18T20:07:32.818Z,20.7
2019-05-18T20:09:37.419Z,20.5
2019-05-18T20:10:39.840Z,20.5
2019-05-18T20:12:44.674Z,20.4
2019-05-18T20:14:49.285Z,20.3
2019-05-18T20:16:54.943Z,20.3
2019-05-18T20:17:57.436Z,20.4
2019-05-18T20:20:02.041Z,20.4
2019-05-18T20:22:06.926Z,20.5
2019-05-18T20:23:10.094Z,20.3
2019-05-18T20:24:12.481Z,20.2
2019-05-18T20:25:14.886Z,20.4
2019-05-18T20:27:19.672Z,20.3
2019-05-18T20:29:28.133Z,20.4
2019-05-18T20:30:30.249Z,20.2
2019-05-18T20:32:34.609Z,20.3
2019-05-18T20:34:39.422Z,20.3
2019-05-18T20:36:44.635Z,20.2
2019-05-18T20:37:47.006Z,20.1
2019-05-18T20:39:51.296Z,20.1
2019-05-18T20:41:55.562Z,20
2019-05-18T20:42:57.719Z,20.1
2019-05-18T20:43:59.821Z,20
2019-05-18T20:45:02.314Z,19.8
2019-05-18T20:47:06.810Z,19.9
2019-05-18T20:49:11.715Z,19.8
2019-05-18T20:50:13.801Z,19.9
2019-05-18T20:52:19.090Z,19.7
2019-05-18T20:54:23.553Z,19.6
2019-05-18T20:56:27.832Z,19.6
2019-05-18T20:57:30.590Z,19.6
2019-05-18T20:58:42.505Z,19.6
2019-05-18T20:59:44.586Z,19.6
2019-05-18T21:01:48.875Z,19.5
2019-05-18T21:03:53.139Z,19.4
2019-05-18T21:04:55.247Z,19.4
2019-05-18T21:07:00.382Z,19.4
2019-05-18T21:09:05.338Z,19.3
2019-05-18T21:10:07.729Z,19.3
2019-05-18T21:11:10.137Z,19.3
2019-05-18T21:12:12.214Z,19.2
2019-05-18T21:14:16.762Z,19.2
2019-05-18T21:16:21.682Z,19.1
2019-05-18T21:17:23.777Z,19.1
2019-05-18T21:19:30.394Z,19
2019-05-18T21:21:35.688Z,19.1
2019-05-18T21:23:41.137Z,19.1
2019-05-18T21:24:44.332Z,19.1
2019-05-18T21:26:48.980Z,18.9
2019-05-18T21:29:01.780Z,19
2019-05-18T21:31:06.612Z,18.9
2019-05-18T21:32:08.767Z,18.9
2019-05-18T21:34:13.292Z,18.9
2019-05-18T21:36:18.469Z,18.9
2019-05-18T21:37:20.859Z,18.9
2019-05-18T21:38:22.950Z,18.8
2019-05-18T21:39:25.368Z,18.8
2019-05-18T21:41:29.885Z,18.8